Russell, Illinois
Current Conditions -  °F | °C
As of 9:55 PM on Tuesday 21 Oct 2014 (Local Time) from KUGN Reporting Station
Overcast Overcast  
Wind Chill: 45°   Ceiling: 2600
Heat Index: 45°   Visibility: 10mi
Dew Point: 38°   Wind: 3mph
Humidity: 76%   Direction: 20°NNE
Pressure: 30.26"   Gusts: NA
Location:  42.49°N, 87.91°W
Report Text: KUGN 220255Z 02003KT 10SM OVC026 07/03 A3026 RMK AO2 SLP251 T00720033 50011
Loading
Personal Weather Stations






























Interactive Weather Map
Tropical Storm Tracking
New forecast layout! Learn more

10-Day Weather Forecast

Advertisements
Track Severe Weather on mobile